KSLC

Salt Lake City International Airport

Salt Lake City, Utah, USA
METAR KSLC 151354Z 15007KT 10SM FEW150 22/11 A3005 RMK AO2 SLP114 T02170106
Observed Flight Rules
Aug-15 @ 13:54 UTC (an hour ago) Visual Flight Rules
Wind Visibility Clouds
150° at 7 knots 10 miles
  • Few at 15,000' AGL
Temperatures Readings
Current 22°C / 72°F
Dewpoint 11°C / 52°F
Humidity 50%
Altimeter 30.05" Hg
Pressure 1011.4 hPa
Elevation 1286
METAR KSLC 151354Z 15007KT 10SM FEW150 22/11 A3005 RMK AO2 SLP114 T02170106
Observed Flight Rules
Aug-15 @ 13:54 UTC
(an hour ago)
VFR
Wind Visibility
150° at 7 knots 10 miles
Clouds
  • Few at 15,000' AGL
Temperature Dewpoint
22°C / 72°F 11°C / 52°F
Humidity Altimeter Pressure
50% 30.05" Hg 1011.4 hPa